sensor_id;sensor_type;location;lat;lon;timestamp;P1;durP1;ratioP1;P2;durP2;ratioP2
25015;SDS011;13029;46.286;7.488;2023-07-13T00:02:06;6.68;;;3.75;;
25015;SDS011;13029;46.286;7.488;2023-07-13T00:04:31;7.45;;;4.40;;
25015;SDS011;13029;46.286;7.488;2023-07-13T00:06:57;11.80;;;4.80;;
25015;SDS011;13029;46.286;7.488;2023-07-13T00:09:22;9.73;;;4.68;;
25015;SDS011;13029;46.286;7.488;2023-07-13T00:11:50;9.85;;;5.28;;
25015;SDS011;13029;46.286;7.488;2023-07-13T00:14:21;5.90;;;4.35;;
25015;SDS011;13029;46.286;7.488;2023-07-13T00:16:47;8.07;;;4.35;;
25015;SDS011;13029;46.286;7.488;2023-07-13T00:19:13;3.70;;;3.40;;
25015;SDS011;13029;46.286;7.488;2023-07-13T00:21:39;177.68;;;9.35;;
25015;SDS011;13029;46.286;7.488;2023-07-13T00:24:05;198.27;;;9.18;;
25015;SDS011;13029;46.286;7.488;2023-07-13T00:26:32;161.45;;;8.80;;
25015;SDS011;13029;46.286;7.488;2023-07-13T00:28:58;5.80;;;4.30;;
25015;SDS011;13029;46.286;7.488;2023-07-13T00:31:24;5.65;;;4.57;;
25015;SDS011;13029;46.286;7.488;2023-07-13T00:33:49;9.60;;;4.70;;
25015;SDS011;13029;46.286;7.488;2023-07-13T00:36:14;4.38;;;3.58;;
25015;SDS011;13029;46.286;7.488;2023-07-13T00:38:40;5.85;;;4.53;;
25015;SDS011;13029;46.286;7.488;2023-07-13T00:41:05;109.57;;;6.50;;
25015;SDS011;13029;46.286;7.488;2023-07-13T00:43:31;10.57;;;4.93;;
25015;SDS011;13029;46.286;7.488;2023-07-13T00:48:41;29.83;;;5.10;;
25015;SDS011;13029;46.286;7.488;2023-07-13T00:51:08;9.05;;;4.28;;
25015;SDS011;13029;46.286;7.488;2023-07-13T00:53:34;22.65;;;5.22;;
25015;SDS011;13029;46.286;7.488;2023-07-13T00:56:00;52.75;;;5.70;;
25015;SDS011;13029;46.286;7.488;2023-07-13T00:58:26;289.15;;;11.82;;
25015;SDS011;13029;46.286;7.488;2023-07-13T01:00:52;47.78;;;5.30;;
25015;SDS011;13029;46.286;7.488;2023-07-13T01:03:18;7.22;;;4.32;;
25015;SDS011;13029;46.286;7.488;2023-07-13T01:05:44;4.68;;;3.85;;
25015;SDS011;13029;46.286;7.488;2023-07-13T01:08:12;7.50;;;4.50;;
25015;SDS011;13029;46.286;7.488;2023-07-13T01:10:37;267.50;;;11.70;;
25015;SDS011;13029;46.286;7.488;2023-07-13T01:13:06;43.40;;;5.00;;
25015;SDS011;13029;46.286;7.488;2023-07-13T01:15:33;10.88;;;4.00;;
25015;SDS011;13029;46.286;7.488;2023-07-13T01:18:02;10.03;;;4.37;;
25015;SDS011;13029;46.286;7.488;2023-07-13T01:20:29;5.40;;;4.30;;
25015;SDS011;13029;46.286;7.488;2023-07-13T01:22:54;5.72;;;4.15;;
25015;SDS011;13029;46.286;7.488;2023-07-13T01:25:20;10.15;;;5.07;;
25015;SDS011;13029;46.286;7.488;2023-07-13T01:27:45;7.43;;;5.00;;
25015;SDS011;13029;46.286;7.488;2023-07-13T01:30:11;6.85;;;4.78;;
25015;SDS011;13029;46.286;7.488;2023-07-13T01:32:36;11.40;;;4.75;;
25015;SDS011;13029;46.286;7.488;2023-07-13T01:35:02;6.05;;;4.60;;
25015;SDS011;13029;46.286;7.488;2023-07-13T01:37:27;6.68;;;4.22;;
25015;SDS011;13029;46.286;7.488;2023-07-13T01:40:01;9.70;;;5.85;;
25015;SDS011;13029;46.286;7.488;2023-07-13T01:42:27;9.35;;;4.65;;
25015;SDS011;13029;46.286;7.488;2023-07-13T01:44:53;6.90;;;4.55;;
25015;SDS011;13029;46.286;7.488;2023-07-13T01:47:18;5.60;;;4.38;;
25015;SDS011;13029;46.286;7.488;2023-07-13T01:49:43;6.13;;;5.20;;
25015;SDS011;13029;46.286;7.488;2023-07-13T01:52:11;7.25;;;4.53;;
25015;SDS011;13029;46.286;7.488;2023-07-13T01:54:36;6.70;;;4.97;;
25015;SDS011;13029;46.286;7.488;2023-07-13T01:57:01;9.25;;;4.43;;
25015;SDS011;13029;46.286;7.488;2023-07-13T01:59:28;7.53;;;4.60;;
25015;SDS011;13029;46.286;7.488;2023-07-13T02:01:53;6.72;;;4.53;;
25015;SDS011;13029;46.286;7.488;2023-07-13T02:04:19;7.93;;;4.95;;
25015;SDS011;13029;46.286;7.488;2023-07-13T02:06:44;7.00;;;4.60;;
25015;SDS011;13029;46.286;7.488;2023-07-13T02:09:09;4.90;;;4.28;;
25015;SDS011;13029;46.286;7.488;2023-07-13T02:11:35;6.32;;;4.13;;
25015;SDS011;13029;46.286;7.488;2023-07-13T02:14:00;5.05;;;3.90;;
25015;SDS011;13029;46.286;7.488;2023-07-13T02:16:29;6.60;;;4.60;;
25015;SDS011;13029;46.286;7.488;2023-07-13T02:18:55;5.20;;;4.53;;
25015;SDS011;13029;46.286;7.488;2023-07-13T02:21:21;9.10;;;4.10;;
25015;SDS011;13029;46.286;7.488;2023-07-13T02:23:48;6.38;;;4.20;;
25015;SDS011;13029;46.286;7.488;2023-07-13T02:26:14;7.65;;;4.50;;
25015;SDS011;13029;46.286;7.488;2023-07-13T02:28:39;7.20;;;5.22;;
25015;SDS011;13029;46.286;7.488;2023-07-13T02:31:06;9.68;;;5.63;;
25015;SDS011;13029;46.286;7.488;2023-07-13T02:33:35;6.85;;;5.40;;
25015;SDS011;13029;46.286;7.488;2023-07-13T02:36:01;7.25;;;5.10;;
25015;SDS011;13029;46.286;7.488;2023-07-13T02:38:26;9.60;;;5.60;;
25015;SDS011;13029;46.286;7.488;2023-07-13T02:40:52;7.82;;;4.60;;
25015;SDS011;13029;46.286;7.488;2023-07-13T02:43:17;8.05;;;4.68;;
25015;SDS011;13029;46.286;7.488;2023-07-13T02:45:43;8.82;;;5.55;;
25015;SDS011;13029;46.286;7.488;2023-07-13T02:48:09;7.32;;;5.07;;
25015;SDS011;13029;46.286;7.488;2023-07-13T02:50:34;7.65;;;5.10;;
25015;SDS011;13029;46.286;7.488;2023-07-13T02:53:00;6.65;;;5.30;;
25015;SDS011;13029;46.286;7.488;2023-07-13T02:55:25;9.48;;;5.60;;
25015;SDS011;13029;46.286;7.488;2023-07-13T02:57:50;9.05;;;5.20;;
25015;SDS011;13029;46.286;7.488;2023-07-13T03:00:16;8.68;;;5.55;;
25015;SDS011;13029;46.286;7.488;2023-07-13T03:02:41;8.82;;;5.10;;
25015;SDS011;13029;46.286;7.488;2023-07-13T03:05:06;7.07;;;4.88;;
25015;SDS011;13029;46.286;7.488;2023-07-13T03:07:32;13.55;;;5.78;;
25015;SDS011;13029;46.286;7.488;2023-07-13T03:09:58;8.75;;;5.20;;
25015;SDS011;13029;46.286;7.488;2023-07-13T03:12:24;12.23;;;6.57;;
25015;SDS011;13029;46.286;7.488;2023-07-13T03:14:50;7.20;;;5.97;;
25015;SDS011;13029;46.286;7.488;2023-07-13T03:17:15;46.40;;;6.60;;
25015;SDS011;13029;46.286;7.488;2023-07-13T03:19:41;19.98;;;6.68;;
25015;SDS011;13029;46.286;7.488;2023-07-13T03:22:06;11.95;;;6.38;;
25015;SDS011;13029;46.286;7.488;2023-07-13T03:24:32;7.65;;;5.53;;
25015;SDS011;13029;46.286;7.488;2023-07-13T03:26:58;36.50;;;6.47;;
25015;SDS011;13029;46.286;7.488;2023-07-13T03:29:23;6.80;;;5.05;;
25015;SDS011;13029;46.286;7.488;2023-07-13T03:31:49;8.63;;;5.18;;
25015;SDS011;13029;46.286;7.488;2023-07-13T03:34:14;12.23;;;6.13;;
25015;SDS011;13029;46.286;7.488;2023-07-13T03:36:39;6.32;;;5.65;;
25015;SDS011;13029;46.286;7.488;2023-07-13T03:39:05;7.18;;;5.75;;
25015;SDS011;13029;46.286;7.488;2023-07-13T03:41:33;8.35;;;5.55;;
25015;SDS011;13029;46.286;7.488;2023-07-13T03:43:58;7.38;;;5.03;;
25015;SDS011;13029;46.286;7.488;2023-07-13T03:46:23;11.40;;;5.32;;
25015;SDS011;13029;46.286;7.488;2023-07-13T03:48:49;8.25;;;5.55;;
25015;SDS011;13029;46.286;7.488;2023-07-13T03:51:14;8.43;;;4.80;;
25015;SDS011;13029;46.286;7.488;2023-07-13T03:53:43;8.43;;;5.18;;
25015;SDS011;13029;46.286;7.488;2023-07-13T03:56:09;5.93;;;4.50;;
25015;SDS011;13029;46.286;7.488;2023-07-13T03:58:36;7.88;;;5.05;;
25015;SDS011;13029;46.286;7.488;2023-07-13T04:01:06;6.55;;;4.75;;
25015;SDS011;13029;46.286;7.488;2023-07-13T04:03:33;6.63;;;4.32;;
25015;SDS011;13029;46.286;7.488;2023-07-13T04:06:02;12.77;;;4.75;;
25015;SDS011;13029;46.286;7.488;2023-07-13T04:08:29;10.07;;;4.72;;
25015;SDS011;13029;46.286;7.488;2023-07-13T04:10:56;11.00;;;4.88;;
25015;SDS011;13029;46.286;7.488;2023-07-13T04:13:22;6.35;;;4.30;;
25015;SDS011;13029;46.286;7.488;2023-07-13T04:15:47;6.35;;;4.47;;
25015;SDS011;13029;46.286;7.488;2023-07-13T04:18:13;7.47;;;5.10;;
25015;SDS011;13029;46.286;7.488;2023-07-13T04:20:38;7.68;;;4.60;;
25015;SDS011;13029;46.286;7.488;2023-07-13T04:23:03;6.63;;;4.43;;
25015;SDS011;13029;46.286;7.488;2023-07-13T04:25:29;5.72;;;4.30;;
25015;SDS011;13029;46.286;7.488;2023-07-13T04:27:54;11.32;;;5.47;;
25015;SDS011;13029;46.286;7.488;2023-07-13T04:30:19;6.82;;;4.82;;
25015;SDS011;13029;46.286;7.488;2023-07-13T04:32:45;7.72;;;5.20;;
25015;SDS011;13029;46.286;7.488;2023-07-13T04:35:10;8.15;;;5.78;;
25015;SDS011;13029;46.286;7.488;2023-07-13T04:37:36;9.50;;;5.05;;
25015;SDS011;13029;46.286;7.488;2023-07-13T04:40:02;10.95;;;4.82;;
25015;SDS011;13029;46.286;7.488;2023-07-13T04:42:28;6.60;;;4.53;;
25015;SDS011;13029;46.286;7.488;2023-07-13T04:44:54;9.93;;;5.45;;
25015;SDS011;13029;46.286;7.488;2023-07-13T04:47:19;12.73;;;4.63;;
25015;SDS011;13029;46.286;7.488;2023-07-13T04:49:44;10.38;;;5.30;;
25015;SDS011;13029;46.286;7.488;2023-07-13T04:52:10;9.50;;;4.70;;
25015;SDS011;13029;46.286;7.488;2023-07-13T04:54:36;7.93;;;5.07;;
25015;SDS011;13029;46.286;7.488;2023-07-13T04:57:02;7.15;;;4.85;;
25015;SDS011;13029;46.286;7.488;2023-07-13T04:59:28;9.75;;;4.75;;
25015;SDS011;13029;46.286;7.488;2023-07-13T05:01:53;7.97;;;4.90;;
25015;SDS011;13029;46.286;7.488;2023-07-13T05:04:18;8.02;;;4.95;;
25015;SDS011;13029;46.286;7.488;2023-07-13T05:06:44;6.78;;;4.72;;
25015;SDS011;13029;46.286;7.488;2023-07-13T05:09:09;7.13;;;5.13;;
25015;SDS011;13029;46.286;7.488;2023-07-13T05:11:34;12.98;;;6.53;;
25015;SDS011;13029;46.286;7.488;2023-07-13T05:14:00;165.57;;;9.73;;
25015;SDS011;13029;46.286;7.488;2023-07-13T05:16:26;330.98;;;13.93;;
25015;SDS011;13029;46.286;7.488;2023-07-13T05:18:52;12.57;;;6.85;;
25015;SDS011;13029;46.286;7.488;2023-07-13T05:21:17;12.00;;;7.03;;
25015;SDS011;13029;46.286;7.488;2023-07-13T05:23:42;10.57;;;6.68;;
25015;SDS011;13029;46.286;7.488;2023-07-13T05:26:07;9.75;;;7.18;;
25015;SDS011;13029;46.286;7.488;2023-07-13T05:28:33;10.10;;;7.00;;
25015;SDS011;13029;46.286;7.488;2023-07-13T05:30:58;9.43;;;6.50;;
25015;SDS011;13029;46.286;7.488;2023-07-13T05:33:24;9.35;;;6.68;;
25015;SDS011;13029;46.286;7.488;2023-07-13T05:35:50;9.43;;;6.55;;
25015;SDS011;13029;46.286;7.488;2023-07-13T05:38:15;8.40;;;6.40;;
25015;SDS011;13029;46.286;7.488;2023-07-13T05:40:44;10.10;;;6.72;;
25015;SDS011;13029;46.286;7.488;2023-07-13T05:43:10;10.20;;;6.57;;
25015;SDS011;13029;46.286;7.488;2023-07-13T05:45:36;11.25;;;7.50;;
25015;SDS011;13029;46.286;7.488;2023-07-13T05:48:01;9.75;;;7.40;;
25015;SDS011;13029;46.286;7.488;2023-07-13T05:50:27;10.43;;;7.68;;
25015;SDS011;13029;46.286;7.488;2023-07-13T05:52:52;11.02;;;7.32;;
25015;SDS011;13029;46.286;7.488;2023-07-13T05:55:18;10.73;;;7.28;;
25015;SDS011;13029;46.286;7.488;2023-07-13T05:57:43;11.02;;;7.57;;
25015;SDS011;13029;46.286;7.488;2023-07-13T06:00:09;10.10;;;6.60;;
25015;SDS011;13029;46.286;7.488;2023-07-13T06:02:35;13.98;;;6.88;;
25015;SDS011;13029;46.286;7.488;2023-07-13T06:05:00;11.57;;;7.50;;
25015;SDS011;13029;46.286;7.488;2023-07-13T06:07:25;12.55;;;7.32;;
25015;SDS011;13029;46.286;7.488;2023-07-13T06:09:51;16.92;;;6.78;;
25015;SDS011;13029;46.286;7.488;2023-07-13T06:12:16;13.25;;;6.65;;
25015;SDS011;13029;46.286;7.488;2023-07-13T06:14:41;11.20;;;7.28;;
25015;SDS011;13029;46.286;7.488;2023-07-13T06:17:07;9.15;;;7.18;;
25015;SDS011;13029;46.286;7.488;2023-07-13T06:19:32;11.02;;;7.00;;
25015;SDS011;13029;46.286;7.488;2023-07-13T06:21:58;10.25;;;6.65;;
25015;SDS011;13029;46.286;7.488;2023-07-13T06:24:24;11.38;;;7.07;;
25015;SDS011;13029;46.286;7.488;2023-07-13T06:26:49;15.10;;;6.78;;
25015;SDS011;13029;46.286;7.488;2023-07-13T06:29:15;12.63;;;8.02;;
25015;SDS011;13029;46.286;7.488;2023-07-13T06:31:40;9.88;;;8.35;;
25015;SDS011;13029;46.286;7.488;2023-07-13T06:34:05;10.25;;;7.53;;
25015;SDS011;13029;46.286;7.488;2023-07-13T06:36:31;13.57;;;8.05;;
25015;SDS011;13029;46.286;7.488;2023-07-13T06:38:56;15.80;;;6.60;;
25015;SDS011;13029;46.286;7.488;2023-07-13T06:41:21;11.88;;;7.70;;
25015;SDS011;13029;46.286;7.488;2023-07-13T06:43:47;13.77;;;7.25;;
25015;SDS011;13029;46.286;7.488;2023-07-13T06:46:13;11.23;;;8.65;;
25015;SDS011;13029;46.286;7.488;2023-07-13T06:48:38;13.57;;;8.88;;
25015;SDS011;13029;46.286;7.488;2023-07-13T06:51:03;12.52;;;7.70;;
25015;SDS011;13029;46.286;7.488;2023-07-13T06:53:29;27.58;;;8.90;;
25015;SDS011;13029;46.286;7.488;2023-07-13T06:55:54;11.25;;;7.28;;
25015;SDS011;13029;46.286;7.488;2023-07-13T06:58:21;9.10;;;7.03;;
25015;SDS011;13029;46.286;7.488;2023-07-13T07:00:49;12.88;;;7.57;;
25015;SDS011;13029;46.286;7.488;2023-07-13T07:03:15;14.32;;;8.00;;
25015;SDS011;13029;46.286;7.488;2023-07-13T07:05:40;8.20;;;7.13;;
25015;SDS011;13029;46.286;7.488;2023-07-13T07:08:06;61.88;;;9.68;;
25015;SDS011;13029;46.286;7.488;2023-07-13T07:10:31;17.88;;;8.43;;
25015;SDS011;13029;46.286;7.488;2023-07-13T07:12:57;32.80;;;8.35;;
25015;SDS011;13029;46.286;7.488;2023-07-13T07:15:22;78.93;;;10.75;;
25015;SDS011;13029;46.286;7.488;2023-07-13T07:17:47;17.50;;;7.82;;
25015;SDS011;13029;46.286;7.488;2023-07-13T07:20:13;26.63;;;8.27;;
25015;SDS011;13029;46.286;7.488;2023-07-13T07:22:38;11.68;;;8.52;;
25015;SDS011;13029;46.286;7.488;2023-07-13T07:25:03;82.60;;;10.70;;
25015;SDS011;13029;46.286;7.488;2023-07-13T07:27:29;14.40;;;8.60;;
25015;SDS011;13029;46.286;7.488;2023-07-13T07:29:54;28.35;;;8.43;;
25015;SDS011;13029;46.286;7.488;2023-07-13T07:32:20;20.50;;;7.47;;
25015;SDS011;13029;46.286;7.488;2023-07-13T07:34:45;11.45;;;7.28;;
25015;SDS011;13029;46.286;7.488;2023-07-13T07:37:12;50.88;;;7.95;;
25015;SDS011;13029;46.286;7.488;2023-07-13T07:39:38;9.80;;;6.43;;
25015;SDS011;13029;46.286;7.488;2023-07-13T07:42:03;57.53;;;8.15;;
25015;SDS011;13029;46.286;7.488;2023-07-13T07:44:30;12.25;;;5.80;;
25015;SDS011;13029;46.286;7.488;2023-07-13T07:46:56;8.88;;;6.00;;
25015;SDS011;13029;46.286;7.488;2023-07-13T07:49:21;10.00;;;5.72;;
25015;SDS011;13029;46.286;7.488;2023-07-13T07:51:46;6.28;;;4.05;;
25015;SDS011;13029;46.286;7.488;2023-07-13T07:54:12;5.50;;;4.03;;
25015;SDS011;13029;46.286;7.488;2023-07-13T07:56:38;5.60;;;4.35;;
25015;SDS011;13029;46.286;7.488;2023-07-13T07:59:03;5.78;;;4.50;;
25015;SDS011;13029;46.286;7.488;2023-07-13T08:01:28;7.93;;;4.40;;
25015;SDS011;13029;46.286;7.488;2023-07-13T08:03:54;6.55;;;4.32;;
25015;SDS011;13029;46.286;7.488;2023-07-13T08:06:19;6.80;;;4.10;;
25015;SDS011;13029;46.286;7.488;2023-07-13T08:08:45;8.68;;;4.63;;
25015;SDS011;13029;46.286;7.488;2023-07-13T08:11:10;6.88;;;4.35;;
25015;SDS011;13029;46.286;7.488;2023-07-13T08:13:36;10.23;;;4.85;;
25015;SDS011;13029;46.286;7.488;2023-07-13T08:16:03;8.75;;;5.07;;
25015;SDS011;13029;46.286;7.488;2023-07-13T08:18:29;11.18;;;4.90;;
25015;SDS011;13029;46.286;7.488;2023-07-13T08:20:55;5.88;;;4.07;;
25015;SDS011;13029;46.286;7.488;2023-07-13T08:23:21;7.50;;;4.00;;
25015;SDS011;13029;46.286;7.488;2023-07-13T08:25:51;6.78;;;3.97;;
25015;SDS011;13029;46.286;7.488;2023-07-13T08:28:19;8.65;;;4.50;;
25015;SDS011;13029;46.286;7.488;2023-07-13T08:30:45;5.30;;;4.65;;
25015;SDS011;13029;46.286;7.488;2023-07-13T08:33:13;7.82;;;5.10;;
25015;SDS011;13029;46.286;7.488;2023-07-13T08:35:39;6.28;;;4.55;;
25015;SDS011;13029;46.286;7.488;2023-07-13T08:38:04;5.72;;;4.53;;
25015;SDS011;13029;46.286;7.488;2023-07-13T08:40:30;7.40;;;5.28;;
25015;SDS011;13029;46.286;7.488;2023-07-13T08:42:57;10.77;;;5.15;;
25015;SDS011;13029;46.286;7.488;2023-07-13T08:45:36;8.18;;;5.15;;
25015;SDS011;13029;46.286;7.488;2023-07-13T08:48:20;7.88;;;5.53;;
25015;SDS011;13029;46.286;7.488;2023-07-13T08:51:02;8.05;;;5.18;;
25015;SDS011;13029;46.286;7.488;2023-07-13T08:53:36;7.88;;;5.45;;
25015;SDS011;13029;46.286;7.488;2023-07-13T08:56:03;9.07;;;5.60;;
25015;SDS011;13029;46.286;7.488;2023-07-13T08:58:30;8.27;;;4.80;;
25015;SDS011;13029;46.286;7.488;2023-07-13T09:00:58;6.93;;;5.25;;
25015;SDS011;13029;46.286;7.488;2023-07-13T09:03:30;9.40;;;5.25;;
25015;SDS011;13029;46.286;7.488;2023-07-13T09:06:01;9.43;;;5.00;;
25015;SDS011;13029;46.286;7.488;2023-07-13T09:08:37;6.35;;;4.30;;
25015;SDS011;13029;46.286;7.488;2023-07-13T09:14:00;6.70;;;4.15;;
25015;SDS011;13029;46.286;7.488;2023-07-13T09:16:32;4.55;;;3.35;;
25015;SDS011;13029;46.286;7.488;2023-07-13T09:19:02;11.45;;;3.63;;
25015;SDS011;13029;46.286;7.488;2023-07-13T09:21:31;7.20;;;3.13;;
25015;SDS011;13029;46.286;7.488;2023-07-13T09:23:59;4.82;;;3.08;;
25015;SDS011;13029;46.286;7.488;2023-07-13T09:26:28;4.45;;;3.08;;
25015;SDS011;13029;46.286;7.488;2023-07-13T09:28:59;6.32;;;3.40;;
25015;SDS011;13029;46.286;7.488;2023-07-13T09:31:36;6.25;;;3.50;;
25015;SDS011;13029;46.286;7.488;2023-07-13T09:34:06;7.60;;;3.28;;
25015;SDS011;13029;46.286;7.488;2023-07-13T09:44:16;5.03;;;3.00;;
25015;SDS011;13029;46.286;7.488;2023-07-13T09:46:47;7.05;;;3.83;;
25015;SDS011;13029;46.286;7.488;2023-07-13T09:49:17;5.20;;;3.42;;
25015;SDS011;13029;46.286;7.488;2023-07-13T09:51:43;4.82;;;3.55;;
25015;SDS011;13029;46.286;7.488;2023-07-13T09:54:19;5.70;;;3.83;;
25015;SDS011;13029;46.286;7.488;2023-07-13T09:56:49;5.72;;;3.50;;
25015;SDS011;13029;46.286;7.488;2023-07-13T10:01:45;4.90;;;3.60;;
25015;SDS011;13029;46.286;7.488;2023-07-13T10:04:13;4.07;;;3.08;;
25015;SDS011;13029;46.286;7.488;2023-07-13T10:06:43;4.60;;;2.90;;
25015;SDS011;13029;46.286;7.488;2023-07-13T10:09:10;5.63;;;3.30;;
25015;SDS011;13029;46.286;7.488;2023-07-13T10:11:36;3.95;;;3.22;;
25015;SDS011;13029;46.286;7.488;2023-07-13T10:14:03;7.60;;;3.58;;
25015;SDS011;13029;46.286;7.488;2023-07-13T10:16:35;4.82;;;3.67;;
25015;SDS011;13029;46.286;7.488;2023-07-13T10:21:53;5.75;;;3.65;;
25015;SDS011;13029;46.286;7.488;2023-07-13T10:24:23;4.72;;;3.10;;
25015;SDS011;13029;46.286;7.488;2023-07-13T10:26:57;3.97;;;3.17;;
25015;SDS011;13029;46.286;7.488;2023-07-13T10:29:29;4.90;;;3.75;;
25015;SDS011;13029;46.286;7.488;2023-07-13T10:31:58;3.92;;;2.88;;
25015;SDS011;13029;46.286;7.488;2023-07-13T10:34:23;4.93;;;2.88;;
25015;SDS011;13029;46.286;7.488;2023-07-13T10:36:48;3.50;;;2.72;;
25015;SDS011;13029;46.286;7.488;2023-07-13T10:39:18;3.78;;;2.75;;
25015;SDS011;13029;46.286;7.488;2023-07-13T10:41:46;2.88;;;2.58;;
25015;SDS011;13029;46.286;7.488;2023-07-13T10:44:17;6.68;;;3.47;;
25015;SDS011;13029;46.286;7.488;2023-07-13T10:46:45;3.95;;;2.88;;
25015;SDS011;13029;46.286;7.488;2023-07-13T10:49:10;5.00;;;3.38;;
25015;SDS011;13029;46.286;7.488;2023-07-13T10:51:37;8.77;;;2.67;;
25015;SDS011;13029;46.286;7.488;2023-07-13T10:54:14;4.18;;;3.10;;
25015;SDS011;13029;46.286;7.488;2023-07-13T10:56:43;5.03;;;2.20;;
25015;SDS011;13029;46.286;7.488;2023-07-13T10:59:12;4.25;;;2.22;;
25015;SDS011;13029;46.286;7.488;2023-07-13T11:01:51;3.92;;;2.60;;
25015;SDS011;13029;46.286;7.488;2023-07-13T11:04:18;3.05;;;2.13;;
25015;SDS011;13029;46.286;7.488;2023-07-13T11:06:45;3.55;;;2.42;;
25015;SDS011;13029;46.286;7.488;2023-07-13T11:12:00;3.47;;;2.60;;
25015;SDS011;13029;46.286;7.488;2023-07-13T11:14:35;4.55;;;2.55;;
25015;SDS011;13029;46.286;7.488;2023-07-13T11:20:55;5.35;;;2.20;;
25015;SDS011;13029;46.286;7.488;2023-07-13T11:23:08;8.15;;;2.22;;
25015;SDS011;13029;46.286;7.488;2023-07-13T11:25:36;2.97;;;2.15;;
25015;SDS011;13029;46.286;7.488;2023-07-13T11:41:19;4.53;;;1.75;;
25015;SDS011;13029;46.286;7.488;2023-07-13T11:43:50;2.35;;;1.45;;
25015;SDS011;13029;46.286;7.488;2023-07-13T11:46:23;4.88;;;1.65;;
25015;SDS011;13029;46.286;7.488;2023-07-13T11:48:50;7.82;;;2.33;;
25015;SDS011;13029;46.286;7.488;2023-07-13T11:53:49;4.50;;;1.60;;
25015;SDS011;13029;46.286;7.488;2023-07-13T11:56:15;1.55;;;1.10;;
25015;SDS011;13029;46.286;7.488;2023-07-13T11:58:41;2.47;;;1.60;;
25015;SDS011;13029;46.286;7.488;2023-07-13T12:01:10;2.30;;;1.70;;
25015;SDS011;13029;46.286;7.488;2023-07-13T12:03:43;5.40;;;1.70;;
25015;SDS011;13029;46.286;7.488;2023-07-13T12:06:19;4.55;;;1.50;;
25015;SDS011;13029;46.286;7.488;2023-07-13T12:08:48;2.75;;;1.65;;
25015;SDS011;13029;46.286;7.488;2023-07-13T12:11:15;2.95;;;1.60;;
25015;SDS011;13029;46.286;7.488;2023-07-13T12:13:43;2.67;;;1.35;;
25015;SDS011;13029;46.286;7.488;2023-07-13T12:16:17;3.35;;;1.20;;
25015;SDS011;13029;46.286;7.488;2023-07-13T12:18:47;5.38;;;1.75;;
25015;SDS011;13029;46.286;7.488;2023-07-13T12:21:13;2.90;;;1.83;;
25015;SDS011;13029;46.286;7.488;2023-07-13T12:23:43;2.80;;;1.60;;
25015;SDS011;13029;46.286;7.488;2023-07-13T12:26:09;2.22;;;1.42;;
25015;SDS011;13029;46.286;7.488;2023-07-13T12:28:44;1.83;;;1.38;;
25015;SDS011;13029;46.286;7.488;2023-07-13T12:34:02;4.55;;;1.55;;
25015;SDS011;13029;46.286;7.488;2023-07-13T12:36:33;3.78;;;1.50;;
25015;SDS011;13029;46.286;7.488;2023-07-13T12:39:00;2.22;;;1.30;;
25015;SDS011;13029;46.286;7.488;2023-07-13T12:41:43;4.20;;;1.98;;
25015;SDS011;13029;46.286;7.488;2023-07-13T12:44:14;1.85;;;1.60;;
25015;SDS011;13029;46.286;7.488;2023-07-13T12:46:50;3.95;;;1.75;;
25015;SDS011;13029;46.286;7.488;2023-07-13T12:49:18;2.22;;;1.42;;
25015;SDS011;13029;46.286;7.488;2023-07-13T12:51:43;2.85;;;1.80;;
25015;SDS011;13029;46.286;7.488;2023-07-13T12:54:16;3.05;;;1.20;;
25015;SDS011;13029;46.286;7.488;2023-07-13T12:56:42;3.88;;;1.38;;
25015;SDS011;13029;46.286;7.488;2023-07-13T12:59:09;9.38;;;1.25;;
25015;SDS011;13029;46.286;7.488;2023-07-13T13:01:44;12.30;;;2.10;;
25015;SDS011;13029;46.286;7.488;2023-07-13T13:04:10;2.40;;;1.33;;
25015;SDS011;13029;46.286;7.488;2023-07-13T13:06:38;1.52;;;1.35;;
25015;SDS011;13029;46.286;7.488;2023-07-13T13:09:05;2.40;;;1.33;;
25015;SDS011;13029;46.286;7.488;2023-07-13T13:11:36;2.90;;;1.20;;
25015;SDS011;13029;46.286;7.488;2023-07-13T13:14:01;2.60;;;1.27;;
25015;SDS011;13029;46.286;7.488;2023-07-13T13:18:52;2.80;;;1.40;;
25015;SDS011;13029;46.286;7.488;2023-07-13T13:21:19;3.05;;;1.20;;
25015;SDS011;13029;46.286;7.488;2023-07-13T13:23:46;5.53;;;1.35;;
25015;SDS011;13029;46.286;7.488;2023-07-13T13:26:12;3.80;;;1.30;;
25015;SDS011;13029;46.286;7.488;2023-07-13T13:28:38;3.65;;;1.52;;
25015;SDS011;13029;46.286;7.488;2023-07-13T13:31:04;4.43;;;1.20;;
25015;SDS011;13029;46.286;7.488;2023-07-13T13:33:29;2.45;;;1.38;;
25015;SDS011;13029;46.286;7.488;2023-07-13T13:35:55;2.35;;;1.42;;
25015;SDS011;13029;46.286;7.488;2023-07-13T13:38:22;2.03;;;1.20;;
25015;SDS011;13029;46.286;7.488;2023-07-13T13:40:50;2.33;;;1.40;;
25015;SDS011;13029;46.286;7.488;2023-07-13T13:43:16;2.38;;;1.30;;
25015;SDS011;13029;46.286;7.488;2023-07-13T13:45:42;5.45;;;1.40;;
25015;SDS011;13029;46.286;7.488;2023-07-13T13:48:15;2.75;;;1.27;;
25015;SDS011;13029;46.286;7.488;2023-07-13T13:50:42;1.48;;;1.30;;
25015;SDS011;13029;46.286;7.488;2023-07-13T13:53:12;1.90;;;1.30;;
25015;SDS011;13029;46.286;7.488;2023-07-13T13:55:40;2.10;;;1.52;;
25015;SDS011;13029;46.286;7.488;2023-07-13T13:58:07;2.08;;;1.30;;
25015;SDS011;13029;46.286;7.488;2023-07-13T14:00:36;4.50;;;1.30;;
25015;SDS011;13029;46.286;7.488;2023-07-13T14:03:02;3.67;;;1.30;;
25015;SDS011;13029;46.286;7.488;2023-07-13T14:05:27;2.35;;;1.15;;
25015;SDS011;13029;46.286;7.488;2023-07-13T14:07:53;4.10;;;1.45;;
25015;SDS011;13029;46.286;7.488;2023-07-13T14:10:19;3.78;;;1.10;;
25015;SDS011;13029;46.286;7.488;2023-07-13T14:12:45;11.23;;;1.40;;
25015;SDS011;13029;46.286;7.488;2023-07-13T14:15:14;2.05;;;1.30;;
25015;SDS011;13029;46.286;7.488;2023-07-13T14:17:45;2.35;;;1.05;;
25015;SDS011;13029;46.286;7.488;2023-07-13T14:20:11;1.70;;;1.30;;
25015;SDS011;13029;46.286;7.488;2023-07-13T14:22:37;2.72;;;1.15;;
25015;SDS011;13029;46.286;7.488;2023-07-13T14:25:03;2.08;;;1.35;;
25015;SDS011;13029;46.286;7.488;2023-07-13T14:27:29;4.03;;;1.50;;
25015;SDS011;13029;46.286;7.488;2023-07-13T14:29:55;2.38;;;0.90;;
25015;SDS011;13029;46.286;7.488;2023-07-13T14:32:20;1.50;;;1.17;;
25015;SDS011;13029;46.286;7.488;2023-07-13T14:34:45;3.72;;;1.35;;
25015;SDS011;13029;46.286;7.488;2023-07-13T14:37:14;1.55;;;1.45;;
25015;SDS011;13029;46.286;7.488;2023-07-13T14:39:42;1.77;;;1.27;;
25015;SDS011;13029;46.286;7.488;2023-07-13T14:42:08;1.35;;;1.20;;
25015;SDS011;13029;46.286;7.488;2023-07-13T14:44:34;9.18;;;1.30;;
25015;SDS011;13029;46.286;7.488;2023-07-13T14:47:00;2.85;;;1.15;;
25015;SDS011;13029;46.286;7.488;2023-07-13T14:51:55;3.78;;;1.17;;
25015;SDS011;13029;46.286;7.488;2023-07-13T14:54:22;2.72;;;1.80;;
25015;SDS011;13029;46.286;7.488;2023-07-13T14:56:48;4.00;;;1.30;;
25015;SDS011;13029;46.286;7.488;2023-07-13T14:59:13;2.40;;;1.35;;
25015;SDS011;13029;46.286;7.488;2023-07-13T15:01:39;3.97;;;1.10;;
25015;SDS011;13029;46.286;7.488;2023-07-13T15:04:05;2.33;;;1.20;;
25015;SDS011;13029;46.286;7.488;2023-07-13T15:06:30;2.25;;;1.02;;
25015;SDS011;13029;46.286;7.488;2023-07-13T15:08:56;1.83;;;0.90;;
25015;SDS011;13029;46.286;7.488;2023-07-13T15:11:22;2.38;;;1.17;;
25015;SDS011;13029;46.286;7.488;2023-07-13T15:13:47;1.73;;;1.25;;
25015;SDS011;13029;46.286;7.488;2023-07-13T15:16:17;2.88;;;1.35;;
25015;SDS011;13029;46.286;7.488;2023-07-13T15:18:48;1.75;;;1.20;;
25015;SDS011;13029;46.286;7.488;2023-07-13T15:21:18;4.32;;;1.20;;
25015;SDS011;13029;46.286;7.488;2023-07-13T15:23:45;3.08;;;0.95;;
25015;SDS011;13029;46.286;7.488;2023-07-13T15:26:12;4.97;;;1.35;;
25015;SDS011;13029;46.286;7.488;2023-07-13T15:28:39;2.63;;;1.02;;
25015;SDS011;13029;46.286;7.488;2023-07-13T15:31:11;1.38;;;0.88;;